Latest Weather Observations for Cape Wessel

IDD60801

Issued at 1:31 pm CST Monday 27 April 2015 (issued every 30 minutes, with the page automatically refreshed every 10 minutes)

About weather observations | Map of weather stations | Latest weather observations for NT | Other Formats
Station Details ID: 200786 Name: CAPE WESSEL Lat: -11.00 Lon: 136.76 Height: 18.0 m
Data from the previous 72 hours. | See also: Recent months for locations in Northern Territory
Date/Time
CST
Temp
°C
App
Temp
°C
Dew
Point
Rel
Hum
%
Delta-T
°C
Wind Press
QNH
hPa
Press
MSL
hPa
Rain
since 9 am
mm
Dir
 
Spd
km/h
Gust
km/h
Spd
kts
Gust
kts
27/01:30pm 30.4 28.4 23.3 66 4.9 ESE 39 48 21 26 1010.5 - 0.0
27/01:00pm 30.2 27.8 22.6 63 5.2 ESE 39 46 21 25 1010.8 - 0.0
27/12:30pm 30.0 28.1 23.4 67 4.5 ESE 39 50 21 27 1011.2 - 0.0
27/12:00pm 29.2 26.6 22.9 69 4.3 ESE 41 50 22 27 1011.3 1011.2 0.0
27/11:30am 30.6 29.2 23.0 64 5.2 SE 35 43 19 23 1011.5 - 0.0
27/11:00am 30.7 29.4 23.1 64 5.2 SE 35 43 19 23 1012.2 - 0.0
27/10:30am 30.5 29.4 22.9 64 5.2 SE 33 43 18 23 1012.5 - 0.0
27/10:00am 30.1 28.2 22.0 62 5.5 ESE 35 43 19 23 1012.8 - 0.0
27/09:30am 30.0 28.3 22.4 63 5.2 SE 35 44 19 24 1012.9 - 0.0
27/09:00am 29.4 27.5 22.1 65 4.9 SE 35 44 19 24 1012.9 1012.8 0.0
27/08:30am 28.6 26.1 21.6 66 4.7 SE 37 46 20 25 1012.7 - 0.0
27/08:00am 28.3 25.3 22.1 69 4.2 SE 41 48 22 26 1012.5 - 0.0
27/07:30am 27.7 24.9 21.7 70 4.0 SE 39 48 21 26 1012.1 - 0.0
27/07:00am 27.3 24.5 21.8 72 3.7 SE 39 48 21 26 1011.6 - 0.0
27/06:30am 27.1 25.6 22.1 74 3.4 SE 33 46 18 25 1011.4 - 0.0
27/06:00am 27.2 25.4 22.2 74 3.4 SE 35 43 19 23 1011.2 1011.1 0.0
27/05:30am 27.1 25.1 21.8 73 3.5 SE 35 44 19 24 1011.1 - 0.0
27/05:00am 27.0 24.9 21.7 73 3.5 SE 35 44 19 24 1010.7 - 0.0
27/04:30am 27.1 25.6 22.1 74 3.4 SSE 33 43 18 23 1010.6 - 0.0
27/04:00am 27.1 25.1 21.8 73 3.5 SSE 35 43 19 23 1010.6 - 0.0
27/03:30am 27.2 24.7 21.7 72 3.7 SE 37 46 20 25 1010.9 - 0.0
27/03:00am 27.3 25.3 21.8 72 3.7 SE 35 44 19 24 1011.1 1011.0 0.0
27/02:30am 27.3 25.3 21.8 72 3.7 SE 35 43 19 23 1011.3 - 0.0
27/02:00am 27.2 25.2 21.2 69 4.0 SE 33 43 18 23 1011.6 - 0.0
27/01:30am 27.2 24.6 21.5 71 3.8 SE 37 44 20 24 1011.8 - 0.0
27/01:00am 27.3 24.6 21.3 69 4.0 SE 37 44 20 24 1012.0 - 0.0
27/12:30am 27.7 26.0 22.4 73 3.6 SE 35 43 19 23 1012.2 - 0.0
27/12:00am 27.8 26.1 22.5 73 3.6 SE 35 44 19 24 1012.6 1012.5 0.0
 
Date/Time
CST
Temp
°C
App
Temp
°C
Dew
Point
Rel
Hum
%
Delta-T
°C
Wind Press
QNH
hPa
Press
MSL
hPa
Rain
since 9 am
mm
Dir
 
Spd
km/h
Gust
km/h
Spd
kts
Gust
kts
26/11:30pm 27.7 25.4 20.5 65 4.7 SSE 33 44 18 24 1012.7 - 0.0
26/11:00pm 27.7 25.4 21.3 68 4.3 SE 35 46 19 25 1012.9 - 0.0
26/10:30pm 27.9 25.7 21.4 67 4.3 SE 35 46 19 25 1013.0 - 0.0
26/10:00pm 27.8 24.6 21.1 67 4.4 SE 39 48 21 26 1012.8 - 0.0
26/09:30pm 28.0 24.8 21.1 66 4.6 SE 39 48 21 26 1012.8 - 0.0
26/09:00pm 28.0 24.1 21.1 66 4.6 SE 43 50 23 27 1012.8 1012.7 0.0
26/08:30pm 27.6 24.2 21.4 69 4.1 SE 41 52 22 28 1012.7 - 0.0
26/08:00pm 27.9 25.7 21.4 67 4.3 SSE 35 44 19 24 1012.4 - 0.0
26/07:30pm 27.6 24.6 21.4 69 4.1 SE 39 50 21 27 1012.0 - 0.0
26/07:00pm 27.9 24.4 21.2 67 4.5 SE 41 52 22 28 1011.5 - 0.0
26/06:30pm 28.4 25.3 21.2 65 4.8 SE 39 50 21 27 1011.3 - 0.0
26/06:00pm 28.4 25.4 21.4 66 4.7 SE 39 50 21 27 1011.1 1011.0 0.0
26/05:30pm 28.8 25.8 22.1 67 4.5 SE 41 48 22 26 1010.7 - 0.0
26/05:00pm 28.7 26.0 22.0 67 4.5 SE 39 46 21 25 1010.3 - 0.0
26/04:30pm 29.7 28.6 22.9 67 4.6 SE 33 43 18 23 1009.9 - 0.0
26/04:00pm 30.1 29.7 22.3 63 5.3 SE 28 33 15 18 1010.0 - 0.0
26/03:30pm 30.6 30.3 21.9 59 5.9 SE 26 33 14 18 1010.0 - 0.0
26/03:00pm 30.4 30.1 21.8 60 5.8 SE 26 32 14 17 1010.2 1010.1 0.0
26/02:30pm 31.0 29.8 20.9 55 6.7 SE 28 33 15 18 1010.3 - 0.0
26/02:00pm 31.5 31.1 21.7 56 6.6 SE 26 33 14 18 1010.5 - 0.0
26/01:30pm 31.6 30.7 21.4 54 6.9 SE 28 33 15 18 1010.8 - 0.0
26/01:00pm 31.6 31.2 22.3 57 6.3 SE 28 35 15 19 1011.1 - 0.0
26/12:30pm 31.1 30.3 21.6 57 6.4 SE 28 33 15 18 1011.3 - 0.0
26/12:00pm 30.9 29.6 21.4 57 6.4 SE 30 35 16 19 1011.7 1011.6 0.0
26/11:30am 30.9 30.3 21.9 58 6.1 SE 28 32 15 17 1012.0 - 0.0
26/10:30am 30.4 30.1 21.8 60 5.8 SE 26 33 14 18 1012.6 - 0.0
26/10:00am 30.5 30.3 21.3 58 6.2 SE 24 30 13 16 1012.7 - 0.0
26/09:30am 30.2 30.3 21.8 60 5.7 SE 24 30 13 16 1012.5 - 0.0
26/09:00am 30.0 30.4 22.4 63 5.2 ESE 24 28 13 15 1012.2 1012.1 0.0
26/08:30am 29.2 29.1 21.4 63 5.2 ESE 24 32 13 17 1012.0 - 0.0
26/08:00am 28.5 27.8 21.0 64 5.0 ESE 26 33 14 18 1011.7 - 0.0
26/07:30am 27.8 26.2 20.1 63 5.0 ESE 28 33 15 18 1011.6 - 0.0
26/07:00am 27.2 25.5 20.5 67 4.4 ESE 30 37 16 20 1011.1 - 0.0
26/06:30am 26.9 25.6 20.7 69 4.1 SE 28 35 15 19 1010.8 - 0.0
26/06:00am 27.0 25.7 20.6 68 4.2 SE 28 33 15 18 1010.6 1010.5 0.0
26/05:30am 27.1 25.9 20.9 69 4.1 SE 28 33 15 18 1010.4 - 0.0
26/05:00am 27.2 25.4 20.3 66 4.5 SE 30 35 16 19 1010.5 - 0.0
26/04:30am 27.4 25.7 19.7 63 5.0 SE 28 35 15 19 1010.4 - 0.0
26/04:00am 27.3 25.6 19.9 64 4.8 ESE 28 35 15 19 1010.4 - 0.0
26/03:30am 27.3 25.0 19.4 62 5.1 ESE 30 37 16 20 1010.3 - 0.0
26/03:00am 27.4 24.4 18.7 59 5.6 ESE 32 37 17 20 1010.1 1010.0 0.0
26/02:30am 27.6 24.0 18.6 58 5.8 ESE 35 44 19 24 1010.3 - 0.0
26/02:00am 27.7 24.8 19.2 60 5.5 ESE 33 43 18 23 1010.5 - 0.0
26/01:30am 27.7 24.5 19.5 61 5.3 ESE 35 46 19 25 1010.7 - 0.0
26/01:00am 27.6 24.5 19.7 62 5.1 ESE 35 44 19 24 1010.8 - 0.0
26/12:30am 27.8 24.7 19.6 61 5.3 ESE 35 46 19 25 1011.4 - 0.0
26/12:00am 27.9 24.1 19.7 61 5.3 ESE 39 46 21 25 1011.6 1011.5 0.0
 
Date/Time
CST
Temp
°C
App
Temp
°C
Dew
Point
Rel
Hum
%
Delta-T
°C
Wind Press
QNH
hPa
Press
MSL
hPa
Rain
since 9 am
mm
Dir
 
Spd
km/h
Gust
km/h
Spd
kts
Gust
kts
25/11:30pm 28.0 25.4 20.6 64 4.9 ESE 35 44 19 24 1011.7 - 0.0
25/11:00pm 27.9 24.7 20.2 63 5.1 SE 37 46 20 25 1011.9 - 0.0
25/10:30pm 27.9 25.1 20.2 63 5.1 SE 35 44 19 24 1011.8 - 0.0
25/10:00pm 28.1 25.1 19.9 61 5.4 SE 35 48 19 26 1011.7 - 0.0
25/09:30pm 28.1 24.8 20.1 62 5.2 SE 37 46 20 25 1011.6 - 0.0
25/09:00pm 28.1 25.2 20.1 62 5.2 SE 35 43 19 23 1011.3 1011.2 0.0
25/08:30pm 28.3 25.8 20.8 63 5.0 SE 35 44 19 24 1011.1 - 0.0
25/08:00pm 28.2 25.9 20.5 63 5.1 SSE 33 46 18 25 1011.0 - 0.0
25/07:30pm 28.2 25.6 20.7 63 5.0 SSE 35 46 19 25 1010.4 - 0.0
25/07:00pm 28.2 25.0 20.2 62 5.3 SSE 37 46 20 25 1009.9 - 0.0
25/06:30pm 28.1 25.1 19.9 61 5.4 SSE 35 43 19 23 1009.5 - 0.0
25/06:00pm 28.1 25.7 19.9 61 5.4 SE 32 44 17 24 1009.4 1009.3 0.0
25/05:30pm 28.6 26.1 19.8 59 5.8 SE 32 41 17 22 1009.2 - 0.0
25/05:00pm 28.8 26.2 19.4 56 6.1 SE 32 41 17 22 1009.2 - 0.0
25/04:30pm 29.4 27.3 19.7 56 6.3 SE 30 35 16 19 1009.1 - 0.0
25/04:00pm 29.6 27.4 19.6 55 6.5 SE 30 35 16 19 1008.7 - 0.0
25/03:30pm 30.2 27.8 19.9 54 6.8 SE 32 39 17 21 1008.6 - 0.0
25/03:00pm 30.3 27.3 18.7 50 7.5 SE 32 39 17 21 1008.8 1008.7 0.0
25/02:30pm 30.7 28.2 18.8 49 7.7 SE 30 37 16 20 1009.1 - 0.0
25/02:00pm 30.8 28.1 19.2 50 7.6 SE 32 37 17 20 1009.4 - 0.0
25/01:30pm 30.9 28.3 19.6 51 7.4 ESE 32 35 17 19 1009.5 - 0.0
25/01:00pm 31.1 29.0 19.8 51 7.4 SE 30 39 16 21 1009.7 - 0.0
25/12:30pm 31.1 28.8 20.1 52 7.3 ESE 32 35 17 19 1009.8 - 0.0
25/12:00pm 31.0 28.6 19.0 48 7.8 ESE 30 39 16 21 1010.3 1010.2 0.0
25/11:30am 30.7 28.4 18.4 47 7.9 ESE 28 33 15 18 1010.7 - 0.0
25/11:00am 30.6 28.4 18.7 49 7.7 ESE 28 33 15 18 1010.9 - 0.0
25/10:30am 30.7 29.6 19.4 51 7.4 SE 24 32 13 17 1011.5 - 0.0
25/10:00am 30.2 29.5 20.2 55 6.6 ESE 24 32 13 17 1011.4 - 0.0
25/09:30am 29.9 29.2 20.2 56 6.4 SE 24 30 13 16 1011.4 - 0.0
25/09:00am 29.4 28.4 19.7 56 6.3 SE 24 30 13 16 1011.1 1011.0 0.0
25/08:30am 29.0 28.3 19.6 57 6.1 SE 22 28 12 15 1011.1 - 0.0
25/08:00am 28.3 27.5 19.2 57 5.9 SE 22 28 12 15 1010.7 - 0.0
25/07:30am 27.4 27.1 19.5 62 5.1 SE 20 24 11 13 1010.4 - 0.0
25/07:00am 26.4 26.3 19.5 66 4.5 SE 19 22 10 12 1010.0 - 0.0
25/06:30am 25.7 25.7 18.9 66 4.3 SE 17 22 9 12 1010.0 - 0.0
25/06:00am 25.9 25.5 18.8 65 4.5 SE 19 24 10 13 1009.9 1009.8 0.0
25/05:30am 26.0 25.8 19.4 67 4.3 SE 19 22 10 12 1009.7 - 0.0
25/05:00am 26.2 25.9 19.1 65 4.6 SE 19 24 10 13 1009.8 - 0.0
25/04:30am 26.5 25.8 19.4 65 4.6 SSE 22 28 12 15 1009.9 - 0.0
25/04:00am 26.5 25.8 19.4 65 4.6 SSE 22 28 12 15 1009.9 - 0.0
25/03:30am 26.8 26.1 19.4 64 4.8 SSE 22 28 12 15 1009.9 - 0.0
25/03:00am 26.9 25.5 18.7 60 5.3 SE 24 30 13 16 1010.0 1009.9 0.0
25/02:30am 27.0 25.6 18.8 60 5.3 SE 24 32 13 17 1010.1 - 0.0
25/02:00am 27.2 25.5 19.0 61 5.3 SSE 26 32 14 17 1009.9 - 0.0
25/01:30am 27.3 25.6 18.9 60 5.4 SSE 26 32 14 17 1010.0 - 0.0
25/01:00am 27.3 25.7 19.1 61 5.3 SSE 26 33 14 18 1010.2 - 0.0
25/12:30am 27.5 25.3 18.8 59 5.6 SE 28 32 15 17 1010.3 - 0.0
25/12:00am 27.6 25.6 19.1 59 5.5 SE 28 33 15 18 1010.3 1010.2 0.0
 
Date/Time
CST
Temp
°C
App
Temp
°C
Dew
Point
Rel
Hum
%
Delta-T
°C
Wind Press
QNH
hPa
Press
MSL
hPa
Rain
since 9 am
mm
Dir
 
Spd
km/h
Gust
km/h
Spd
kts
Gust
kts
24/11:30pm 27.6 26.3 19.9 63 5.0 SE 26 35 14 19 1010.3 - 0.0
24/11:00pm 27.8 25.4 19.1 59 5.6 SSE 30 35 16 19 1010.4 - 0.0
24/10:30pm 27.9 25.5 19.1 58 5.7 SSE 30 37 16 20 1010.5 - 0.0
24/10:00pm 28.0 25.4 18.7 57 6.0 SE 30 35 16 19 1010.6 - 0.0
24/09:30pm 28.0 25.4 17.8 54 6.5 SE 28 35 15 19 1010.6 - 0.0
24/09:00pm 27.9 26.2 19.7 61 5.3 SE 28 33 15 18 1010.7 1010.6 0.0
24/08:30pm 27.8 25.9 19.3 60 5.5 SE 28 35 15 19 1010.6 - 0.0
24/08:00pm 27.7 26.2 19.5 61 5.3 SE 26 32 14 17 1010.3 - 0.0
24/07:30pm 27.6 26.1 19.4 61 5.3 SE 26 33 14 18 1009.9 - 0.0
24/07:00pm 27.5 26.5 19.6 62 5.1 SE 24 30 13 16 1009.5 - 0.0
24/06:30pm 27.5 26.1 18.8 59 5.6 SE 24 30 13 16 1009.4 - 0.0
24/06:00pm 27.6 26.6 18.9 59 5.6 SE 22 28 12 15 1009.0 1008.9 0.0
24/05:30pm 28.0 26.7 19.8 61 5.3 SE 26 30 14 16 1008.7 - 0.0
24/05:00pm 28.5 27.4 20.2 60 5.5 SE 26 33 14 18 1008.4 - 0.0
24/04:30pm 29.1 28.6 20.8 61 5.5 SE 24 32 13 17 1008.5 - 0.0
24/04:00pm 29.5 29.4 21.4 61 5.4 SE 24 30 13 16 1008.6 - 0.0
24/03:30pm 30.0 30.5 21.9 62 5.5 SE 22 28 12 15 1008.6 - 0.0
24/03:00pm 30.2 30.3 21.8 60 5.7 SE 24 28 13 15 1008.7 1008.6 0.0
24/02:00pm 30.8 31.6 22.4 61 5.7 SE 22 28 12 15 1009.0 - 0.0

Other Formats:

Comma delimited format used in spreadsheet applications
http://www.bom.gov.au/fwo/IDD60801/IDD60801.94147.axf

JavaScript Object Notation format (JSON) in row-major order
http://www.bom.gov.au/fwo/IDD60801/IDD60801.94147.json